Scarborough, Trinidad And Tobago

9:26 AM AST on February 09, 2016 (GMT -0400)
Crown Point | | Change Station
CLOSE
Current Station
Airport
Location: Scarborough,
Elevation: 26 ft
Nearby Weather Stations

Elev 26 ft 11.15 °N, 60.84 °W | Updated 26 minutes ago

Scattered Clouds
Scattered Clouds
82 °F
Feels Like 85 °F
N
14
Wind Variable Wind from East

Today
High -- | Low -- °F
--% Chance of Precip.
Yesterday
High -- | Low -- °F
Precip. -- in
Pressure 30.06 in
Visibility 6.2 miles
Clouds Few 1800 ft
Scattered Clouds 3500 ft
Heat Index 85 °F
Dew Point 68 °F
Humidity 62%
Rainfall 0.00 in
Snow Depth Not available.
6:26 AM 6:09 PM
New Moon, 1% visible
METAR TTCP 091300Z 10012KT 9999 FEW018 SCT035 28/20 Q1018 NOSIG
Pressure 30.06 in
Visibility 6.2 miles
Clouds Few 1800 ft
Scattered Clouds 3500 ft
Heat Index 85 °F
Dew Point 68 °F
Humidity 62%
Rainfall 0.00 in
Snow Depth Not available.
6:26 AM 6:09 PM
New Moon, 1% visible
METAR TTCP 091300Z 10012KT 9999 FEW018 SCT035 28/20 Q1018 NOSIG

10-Day Weather Forecast

No radar image for this location.
×

Almanac

Astronomy

Feb. 09, 2016 Rise Set
Actual Time
Civil Twilight
Nautical Twilight
Astronomical Twilight
Moon
Length of Visible Light
Length of Day
Tomorrow will be .
, % of the Moon is Illuminated

Today's Extremes

Country Highs Country Lows

Community

WunderPhotos

Upload Photos

1,891,591 photos uploaded!

WunderBlog® & News

Nearby

Air Quality

  Air Quality AQ Index Pollutant
Not available.

Snow Depth

Station Depth Elevation

Earthquake Activity

City Distance Mag. Time & Date
Minimum magnitude displayed is 2.5.

Coastal Water Temperatures

Place Temperature

Stations

Nearby Weather Stations

Station Location Temp. Windchill Dew Point Humidity Wind Precip. Elev Updated Type